Time;durP1;ratioP1;P1;durP2;ratioP2;P2;SDS_P1;SDS_P2;PMS_P1;PMS_P2;Temp;Humidity;BMP_temperature;BMP_pressure;BME280_temperature;BME280_humidity;BME280_pressure;Samples;Min_cycle;Max_cycle;Signal;HPM_P1;HPM_P2
2023/08/13 00:02:12;;;;;;;4.43;3.38;;;18.60;99.90;;;;;;5110858;28;20028;-61
2023/08/13 00:04:38;;;;;;;4.47;3.22;;;18.60;99.90;;;;;;5091725;28;20059;-62
2023/08/13 00:07:03;;;;;;;3.38;3.08;;;18.50;99.90;;;;;;5110887;28;20547;-62
2023/08/13 00:09:29;;;;;;;4.38;3.83;;;18.50;99.90;;;;;;5091454;28;20032;-62
2023/08/13 00:11:54;;;;;;;3.50;3.20;;;18.50;99.90;;;;;;5110798;28;20039;-62
2023/08/13 00:14:20;;;;;;;3.42;2.95;;;18.50;99.90;;;;;;5095142;28;20023;-62
2023/08/13 00:16:47;;;;;;;3.50;3.20;;;18.40;99.90;;;;;;5111352;28;20055;-62
2023/08/13 00:19:13;;;;;;;4.22;3.40;;;18.50;99.90;;;;;;5089875;28;20028;-61
2023/08/13 00:21:38;;;;;;;4.20;3.75;;;18.50;99.90;;;;;;5110741;28;20023;-62
2023/08/13 00:24:04;;;;;;;4.18;3.05;;;18.40;99.90;;;;;;5089467;28;20036;-62
2023/08/13 00:26:29;;;;;;;4.68;3.22;;;18.40;99.90;;;;;;5110431;28;20139;-62
2023/08/13 00:28:55;;;;;;;4.07;3.08;;;18.40;99.90;;;;;;5091492;28;20028;-62
2023/08/13 00:31:20;;;;;;;4.57;3.08;;;18.40;99.90;;;;;;5110261;28;20108;-62
2023/08/13 00:33:46;;;;;;;4.38;3.28;;;18.40;99.90;;;;;;5090563;28;20103;-62
2023/08/13 00:36:11;;;;;;;6.00;2.85;;;18.30;99.90;;;;;;5110482;28;20028;-61
2023/08/13 00:38:37;;;;;;;3.67;3.08;;;18.30;99.90;;;;;;5091040;28;20111;-62
2023/08/13 00:41:02;;;;;;;3.42;2.72;;;18.30;99.90;;;;;;5110248;28;20020;-62
2023/08/13 00:43:28;;;;;;;3.45;3.15;;;18.30;99.90;;;;;;5091091;28;20107;-62
2023/08/13 00:45:54;;;;;;;3.03;2.58;;;18.20;99.90;;;;;;5109992;28;20111;-62
2023/08/13 00:48:20;;;;;;;3.50;3.17;;;18.20;99.90;;;;;;5090702;28;20034;-62
2023/08/13 00:50:46;;;;;;;3.05;2.75;;;18.10;99.90;;;;;;5110100;28;20032;-62
2023/08/13 00:53:12;;;;;;;4.22;3.00;;;18.10;99.90;;;;;;5093216;28;20063;-61
2023/08/13 00:55:38;;;;;;;3.05;2.75;;;18.10;99.90;;;;;;5110440;28;20036;-62
2023/08/13 00:58:04;;;;;;;2.78;2.45;;;18.00;99.90;;;;;;5090947;28;20063;-62
2023/08/13 01:00:30;;;;;;;2.75;2.55;;;18.00;99.90;;;;;;5109785;28;20487;-62
2023/08/13 01:02:56;;;;;;;3.20;2.90;;;17.90;99.90;;;;;;5090570;28;20400;-62
2023/08/13 01:05:32;;;;;;;2.75;2.53;;;17.90;99.90;;;;;;5108458;28;20032;-62
2023/08/13 01:08:25;;;;;;;4.25;2.78;;;17.90;99.90;;;;;;5069892;28;20103;-62
2023/08/13 01:11:08;;;;;;;3.63;3.33;;;17.90;99.90;;;;;;5090150;28;20266;-62
2023/08/13 01:13:42;;;;;;;3.35;3.05;;;17.80;99.90;;;;;;5070145;28;20036;-50
2023/08/13 01:16:09;;;;;;;3.42;2.30;;;17.80;99.90;;;;;;5107241;28;20066;-61
2023/08/13 01:18:36;;;;;;;2.65;2.42;;;17.80;99.90;;;;;;5090348;28;20348;-62
2023/08/13 01:21:02;;;;;;;4.97;3.20;;;17.70;99.90;;;;;;5109763;28;20335;-62
2023/08/13 01:23:28;;;;;;;2.97;2.67;;;17.70;99.90;;;;;;5094977;28;20024;-45
2023/08/13 01:26:03;;;;;;;3.10;2.85;;;17.60;99.90;;;;;;5110338;28;20150;-48
2023/08/13 01:29:09;;;;;;;3.20;2.55;;;17.60;99.90;;;;;;5069940;28;20036;-50
2023/08/13 01:31:37;;;;;;;2.78;2.58;;;17.60;99.90;;;;;;5090945;28;20415;-44
2023/08/13 01:34:03;;;;;;;2.50;2.30;;;17.50;99.90;;;;;;5089980;28;20035;-49
2023/08/13 01:36:31;;;;;;;3.00;2.70;;;17.50;99.90;;;;;;5109264;28;20051;-47
2023/08/13 01:38:58;;;;;;;4.13;3.38;;;17.50;99.90;;;;;;5090076;28;20030;-47
2023/08/13 01:41:32;;;;;;;3.45;3.00;;;17.50;99.90;;;;;;5109950;28;20077;-47
2023/08/13 01:43:57;;;;;;;2.70;2.50;;;17.40;99.90;;;;;;5068473;28;20400;-45
2023/08/13 01:46:23;;;;;;;3.42;3.00;;;17.40;99.90;;;;;;5112507;28;20024;-45
2023/08/13 01:48:48;;;;;;;2.75;2.55;;;17.40;99.90;;;;;;5094363;28;20042;-44
2023/08/13 01:51:14;;;;;;;3.30;2.97;;;17.30;99.90;;;;;;5113466;28;20035;-45
2023/08/13 01:53:39;;;;;;;3.40;2.70;;;17.30;99.90;;;;;;5100494;28;20075;-46
2023/08/13 01:56:05;;;;;;;2.88;2.58;;;17.30;99.90;;;;;;5094100;28;20441;-49
2023/08/13 01:58:30;;;;;;;4.60;2.75;;;17.20;99.90;;;;;;5113332;28;20039;-47
2023/08/13 02:00:56;;;;;;;4.15;2.55;;;17.20;99.90;;;;;;5094158;28;20438;-50
2023/08/13 02:03:21;;;;;;;4.75;2.63;;;17.20;99.90;;;;;;5113124;28;20028;-45
2023/08/13 02:05:47;;;;;;;5.22;3.17;;;17.20;99.90;;;;;;5092796;28;20024;-47
2023/08/13 02:08:12;;;;;;;3.25;2.83;;;17.10;99.90;;;;;;5112998;28;20407;-46
2023/08/13 02:10:38;;;;;;;3.13;2.83;;;17.10;99.90;;;;;;5093983;28;20073;-47
2023/08/13 02:13:04;;;;;;;3.47;2.92;;;17.10;99.90;;;;;;5113407;28;20032;-45
2023/08/13 02:15:30;;;;;;;4.55;3.38;;;17.10;99.90;;;;;;5090123;28;20024;-45
2023/08/13 02:17:55;;;;;;;3.47;2.72;;;17.10;99.90;;;;;;5112956;28;20555;-47
2023/08/13 02:20:21;;;;;;;3.40;2.90;;;17.20;99.90;;;;;;5093845;28;20044;-45
2023/08/13 02:22:46;;;;;;;3.33;2.72;;;17.20;99.90;;;;;;5110844;28;20517;-46
2023/08/13 02:25:13;;;;;;;3.33;2.60;;;17.30;99.90;;;;;;5113505;28;20146;-49
2023/08/13 02:27:38;;;;;;;3.67;3.00;;;17.30;99.90;;;;;;5093741;28;20043;-48
2023/08/13 02:30:04;;;;;;;3.40;3.10;;;17.40;99.90;;;;;;5109022;28;20036;-46
2023/08/13 02:32:30;;;;;;;2.97;2.67;;;17.40;99.90;;;;;;5093043;28;20026;-46
2023/08/13 02:34:55;;;;;;;4.15;2.58;;;17.50;99.90;;;;;;5112651;28;20024;-45
2023/08/13 02:37:21;;;;;;;3.35;2.95;;;17.50;99.90;;;;;;5093483;28;20518;-48
2023/08/13 02:39:47;;;;;;;6.53;3.00;;;17.60;99.90;;;;;;5112632;28;20088;-45
2023/08/13 02:42:12;;;;;;;3.63;3.33;;;17.60;99.90;;;;;;5093416;28;20402;-46
2023/08/13 02:44:37;;;;;;;4.45;2.67;;;17.70;99.90;;;;;;5112487;28;20032;-45
2023/08/13 02:47:03;;;;;;;3.13;2.90;;;17.70;99.90;;;;;;5093338;28;20681;-47
2023/08/13 02:49:28;;;;;;;2.42;2.22;;;17.70;99.90;;;;;;5112481;28;20318;-47
2023/08/13 02:51:54;;;;;;;3.50;3.20;;;17.80;99.90;;;;;;5093146;28;20036;-45
2023/08/13 02:54:20;;;;;;;2.78;2.50;;;17.80;99.90;;;;;;5096425;28;20028;-47
2023/08/13 02:56:45;;;;;;;3.75;2.58;;;17.80;99.90;;;;;;5111848;28;20085;-47
2023/08/13 02:59:11;;;;;;;2.55;2.35;;;17.80;99.90;;;;;;5093083;28;20032;-45
2023/08/13 03:01:38;;;;;;;3.75;3.33;;;17.80;99.90;;;;;;5112259;28;20077;-49
2023/08/13 03:04:04;;;;;;;4.25;2.70;;;17.80;99.90;;;;;;5092940;28;20122;-49
2023/08/13 03:06:30;;;;;;;2.35;2.15;;;17.80;99.90;;;;;;5111937;28;20145;-46
2023/08/13 03:08:55;;;;;;;4.30;2.50;;;17.70;99.90;;;;;;5092908;28;20122;-48
2023/08/13 03:11:21;;;;;;;2.80;2.58;;;17.70;99.90;;;;;;5112054;28;20531;-44
2023/08/13 03:13:47;;;;;;;3.00;2.70;;;17.60;99.90;;;;;;5091327;28;20055;-48
2023/08/13 03:16:13;;;;;;;2.88;2.58;;;17.60;99.90;;;;;;5109711;28;20177;-45
2023/08/13 03:18:40;;;;;;;2.30;2.10;;;17.60;99.90;;;;;;5093033;28;20028;-44
2023/08/13 03:21:05;;;;;;;3.85;2.63;;;17.50;99.90;;;;;;5111889;28;20515;-48
2023/08/13 03:23:32;;;;;;;3.35;2.45;;;17.50;99.90;;;;;;5097687;28;20171;-44
2023/08/13 03:25:58;;;;;;;3.90;2.90;;;17.40;99.90;;;;;;5112627;28;20055;-46
2023/08/13 03:28:23;;;;;;;2.72;2.38;;;17.30;99.90;;;;;;5092668;28;20476;-45
2023/08/13 03:30:49;;;;;;;4.80;2.40;;;17.30;99.90;;;;;;5101481;28;20067;-47
2023/08/13 03:33:14;;;;;;;2.70;2.50;;;17.20;99.90;;;;;;5111832;28;20030;-47
2023/08/13 03:35:41;;;;;;;5.15;3.17;;;17.20;99.90;;;;;;5092637;28;20055;-46
2023/08/13 03:38:07;;;;;;;2.40;2.20;;;17.10;99.90;;;;;;5111513;28;20111;-44
2023/08/13 03:40:32;;;;;;;2.78;2.58;;;17.10;99.90;;;;;;5092450;28;20088;-48
2023/08/13 03:42:58;;;;;;;3.05;2.80;;;17.00;99.90;;;;;;5111355;28;20122;-48
2023/08/13 03:45:23;;;;;;;4.32;2.00;;;17.10;99.90;;;;;;5092117;28;20103;-46
2023/08/13 03:47:49;;;;;;;2.35;2.15;;;17.00;99.90;;;;;;5111440;28;20046;-45
2023/08/13 03:50:14;;;;;;;2.22;2.03;;;17.00;99.90;;;;;;5092325;28;20050;-50
2023/08/13 03:52:39;;;;;;;3.22;2.00;;;17.00;99.90;;;;;;5111209;28;20032;-47
2023/08/13 03:55:06;;;;;;;2.63;2.30;;;17.00;99.90;;;;;;5110329;28;20069;-55
2023/08/13 03:57:31;;;;;;;2.63;2.42;;;17.00;99.90;;;;;;5091779;28;20370;-62
2023/08/13 03:59:57;;;;;;;2.85;2.55;;;17.10;99.90;;;;;;5111090;28;20264;-60
2023/08/13 04:02:22;;;;;;;2.58;2.38;;;17.10;99.90;;;;;;5091968;28;20096;-60
2023/08/13 04:04:48;;;;;;;4.00;2.65;;;17.20;99.90;;;;;;5110956;28;20494;-60
2023/08/13 04:07:14;;;;;;;2.58;2.38;;;17.20;99.90;;;;;;5091700;28;20123;-60
2023/08/13 04:09:40;;;;;;;3.90;2.42;;;17.20;99.90;;;;;;5108809;28;20035;-60
2023/08/13 04:12:06;;;;;;;2.30;2.10;;;17.30;99.90;;;;;;5091797;28;20027;-60
2023/08/13 04:14:32;;;;;;;3.15;2.45;;;17.30;99.90;;;;;;5099157;28;20107;-60
2023/08/13 04:16:57;;;;;;;2.70;2.50;;;17.30;99.90;;;;;;5110635;28;20126;-60
2023/08/13 04:19:23;;;;;;;3.55;2.42;;;17.40;99.90;;;;;;5091463;28;20480;-60
2023/08/13 04:21:48;;;;;;;5.22;2.20;;;17.40;99.90;;;;;;5110486;28;20043;-60
2023/08/13 04:24:13;;;;;;;2.55;2.33;;;17.50;99.90;;;;;;5089684;28;20028;-60
2023/08/13 04:26:39;;;;;;;2.67;2.47;;;17.50;99.90;;;;;;5110453;28;20028;-60
2023/08/13 04:29:04;;;;;;;3.15;2.85;;;17.60;99.90;;;;;;5091230;28;20039;-60
2023/08/13 04:31:30;;;;;;;2.42;2.15;;;17.60;99.90;;;;;;5110368;28;20043;-60
2023/08/13 04:33:55;;;;;;;2.85;2.50;;;17.60;99.90;;;;;;5091164;28;20047;-60
2023/08/13 04:36:21;;;;;;;3.22;2.45;;;17.90;99.90;;;;;;5110043;28;20032;-60
2023/08/13 04:38:46;;;;;;;3.17;2.25;;;18.40;99.90;;;;;;5091182;28;20025;-61
2023/08/13 04:41:12;;;;;;;2.80;2.33;;;19.10;99.90;;;;;;5110197;28;20566;-60
2023/08/13 04:43:37;;;;;;;3.53;2.08;;;19.70;99.90;;;;;;5091000;28;20042;-60
2023/08/13 04:46:03;;;;;;;3.88;2.20;;;19.80;99.90;;;;;;5110167;28;20035;-61
2023/08/13 04:48:46;;;;;;;2.17;2.05;;;20.10;99.90;;;;;;5090963;28;20040;-60
2023/08/13 04:51:12;;;;;;;2.10;1.90;;;20.70;99.90;;;;;;5110449;28;20045;-61
2023/08/13 04:53:38;;;;;;;2.42;2.22;;;21.50;99.90;;;;;;5096904;28;20032;-61
2023/08/13 04:56:05;;;;;;;2.10;1.67;;;21.90;99.90;;;;;;5089362;28;20086;-61
2023/08/13 04:58:31;;;;;;;1.60;1.50;;;22.10;99.90;;;;;;5110281;28;20055;-61
2023/08/13 05:00:56;;;;;;;4.68;1.58;;;22.40;99.90;;;;;;5090780;28;20055;-60
2023/08/13 05:03:22;;;;;;;1.83;1.73;;;23.00;99.90;;;;;;5109801;28;20127;-61
2023/08/13 05:05:47;;;;;;;2.78;1.23;;;23.50;99.90;;;;;;5090556;28;20036;-61
2023/08/13 05:08:13;;;;;;;3.47;1.70;;;24.20;99.90;;;;;;5109742;28;20092;-61
2023/08/13 05:10:38;;;;;;;1.45;1.35;;;24.90;99.90;;;;;;5090607;28;20111;-61
2023/08/13 05:13:04;;;;;;;1.35;1.20;;;25.60;99.90;;;;;;5109548;28;20391;-61
2023/08/13 05:15:29;;;;;;;1.83;1.33;;;26.50;99.40;;;;;;5086902;28;20039;-57
2023/08/13 05:17:55;;;;;;;1.30;1.20;;;27.20;97.80;;;;;;5109558;28;20027;-57
2023/08/13 05:20:20;;;;;;;2.88;1.20;;;27.70;94.90;;;;;;5090117;28;20066;-57
2023/08/13 05:22:46;;;;;;;1.42;1.20;;;28.10;93.40;;;;;;5107677;28;20073;-55
2023/08/13 05:25:12;;;;;;;2.95;1.50;;;28.60;92.20;;;;;;5110289;28;20072;-61
2023/08/13 05:27:38;;;;;;;1.45;1.35;;;29.00;89.00;;;;;;5090709;28;20040;-61
2023/08/13 05:30:04;;;;;;;2.75;1.50;;;29.60;87.30;;;;;;5105795;28;20126;-58
2023/08/13 05:32:29;;;;;;;2.17;1.85;;;30.10;84.50;;;;;;5089751;28;20024;-59
2023/08/13 05:34:54;;;;;;;1.50;1.40;;;30.50;81.90;;;;;;5109391;28;20034;-59
2023/08/13 05:37:20;;;;;;;1.52;1.13;;;31.00;80.30;;;;;;5090192;28;20044;-59
2023/08/13 05:39:46;;;;;;;4.07;1.52;;;31.40;77.50;;;;;;5109508;28;20032;-58
2023/08/13 05:42:11;;;;;;;1.38;1.27;;;31.70;75.20;;;;;;5088983;28;20182;-58
2023/08/13 05:44:37;;;;;;;1.98;1.60;;;32.10;71.70;;;;;;5109658;28;20102;-59
2023/08/13 05:47:03;;;;;;;1.65;1.33;;;32.50;69.30;;;;;;5090169;28;20039;-58
2023/08/13 05:49:28;;;;;;;1.50;1.40;;;32.90;66.00;;;;;;5109263;28;20102;-58
2023/08/13 05:51:54;;;;;;;1.90;1.20;;;33.50;64.00;;;;;;5090260;28;20440;-59
2023/08/13 05:54:19;;;;;;;1.85;0.93;;;34.00;61.10;;;;;;5093304;28;20051;-58
2023/08/13 05:56:45;;;;;;;2.97;1.25;;;34.50;58.70;;;;;;5109135;28;20601;-59
2023/08/13 05:59:10;;;;;;;1.10;1.00;;;35.00;55.80;;;;;;5090433;28;20383;-58
2023/08/13 06:01:36;;;;;;;2.33;1.10;;;35.30;53.60;;;;;;5109319;28;20055;-59
2023/08/13 06:04:01;;;;;;;1.98;1.10;;;35.50;50.90;;;;;;5088352;28;20078;-59
2023/08/13 06:06:27;;;;;;;2.00;1.30;;;35.60;48.40;;;;;;5109393;28;20122;-58
2023/08/13 06:08:54;;;;;;;1.52;1.10;;;36.00;46.50;;;;;;5090156;28;20077;-59
2023/08/13 06:11:19;;;;;;;1.58;1.02;;;36.20;43.70;;;;;;5109445;28;20027;-59
2023/08/13 06:13:45;;;;;;;1.48;1.00;;;36.40;41.70;;;;;;5091634;28;20039;-58
2023/08/13 06:16:10;;;;;;;3.10;1.20;;;36.10;39.00;;;;;;5102494;28;20046;-58
2023/08/13 06:18:35;;;;;;;1.20;1.10;;;35.70;38.20;;;;;;5090157;28;20413;-60
2023/08/13 06:21:03;;;;;;;1.88;1.10;;;35.50;37.30;;;;;;5109283;28;20081;-58
2023/08/13 06:23:29;;;;;;;1.65;1.10;;;35.60;35.90;;;;;;5089643;28;20063;-58
2023/08/13 06:25:55;;;;;;;1.98;1.15;;;35.80;34.10;;;;;;5109246;28;20055;-59
2023/08/13 06:28:20;;;;;;;1.67;1.10;;;36.30;32.40;;;;;;5090041;28;20435;-59
2023/08/13 06:30:45;;;;;;;1.70;1.27;;;36.90;30.60;;;;;;5099528;28;20048;-59
2023/08/13 06:33:11;;;;;;;2.47;1.20;;;37.30;29.00;;;;;;5098843;28;20036;-59
2023/08/13 06:35:37;;;;;;;2.78;1.00;;;36.90;27.60;;;;;;5112826;28;20028;-58
2023/08/13 06:38:02;;;;;;;3.85;1.13;;;35.80;27.80;;;;;;5093503;28;20031;-58
2023/08/13 06:40:28;;;;;;;2.45;1.40;;;34.50;28.10;;;;;;5112671;28;20498;-58
2023/08/13 06:42:54;;;;;;;3.17;1.20;;;33.60;29.00;;;;;;5093682;28;20035;-58
2023/08/13 06:45:23;;;;;;;4.18;1.52;;;32.80;29.70;;;;;;5112590;28;20027;-57
2023/08/13 06:47:48;;;;;;;2.88;1.60;;;31.90;31.10;;;;;;5092921;28;20104;-58
2023/08/13 06:50:14;;;;;;;3.85;1.50;;;31.10;32.70;;;;;;5112558;28;20648;-57
2023/08/13 06:52:39;;;;;;;3.95;1.48;;;30.20;34.20;;;;;;5093254;28;20035;-58
2023/08/13 06:55:05;;;;;;;2.92;1.30;;;29.90;35.50;;;;;;5112355;28;20034;-58
2023/08/13 06:57:31;;;;;;;2.17;1.30;;;30.50;35.60;;;;;;5093184;28;20399;-57
2023/08/13 06:59:56;;;;;;;3.17;1.42;;;31.70;33.80;;;;;;5112356;28;20028;-58
2023/08/13 07:02:22;;;;;;;2.50;1.35;;;33.10;31.50;;;;;;5091222;28;20039;-58
2023/08/13 07:04:47;;;;;;;1.92;1.10;;;34.30;29.60;;;;;;5092729;28;20031;-58
2023/08/13 07:07:12;;;;;;;3.85;1.05;;;35.30;27.60;;;;;;5112132;28;20043;-58
2023/08/13 07:09:38;;;;;;;2.92;1.05;;;36.20;26.30;;;;;;5093023;28;20027;-59
2023/08/13 07:12:04;;;;;;;1.98;1.10;;;36.90;25.00;;;;;;5112171;28;20059;-59
2023/08/13 07:14:29;;;;;;;2.25;0.93;;;37.60;23.50;;;;;;5093583;28;20038;-58
2023/08/13 07:16:55;;;;;;;2.60;1.15;;;38.10;21.60;;;;;;5092803;28;20055;-59
2023/08/13 07:19:21;;;;;;;3.55;1.52;;;38.30;20.10;;;;;;5112099;28;20077;-58
2023/08/13 07:21:46;;;;;;;1.88;1.13;;;38.20;19.70;;;;;;5092843;28;20460;-58
2023/08/13 07:24:12;;;;;;;3.38;1.23;;;37.90;19.00;;;;;;5111746;28;20032;-58
2023/08/13 07:26:37;;;;;;;4.20;1.58;;;37.50;18.90;;;;;;5092814;28;20024;-59
2023/08/13 07:29:06;;;;;;;2.65;1.33;;;37.20;18.40;;;;;;5111922;28;20055;-58
2023/08/13 07:31:32;;;;;;;2.58;1.35;;;36.90;18.40;;;;;;5092117;28;20082;-58
2023/08/13 07:33:58;;;;;;;3.25;1.52;;;36.30;18.40;;;;;;5091767;28;20125;-58
2023/08/13 07:36:23;;;;;;;3.42;1.50;;;36.00;18.30;;;;;;5111717;28;20115;-59
2023/08/13 07:38:49;;;;;;;3.28;1.13;;;36.10;17.70;;;;;;5092406;28;20039;-58
2023/08/13 07:41:14;;;;;;;2.75;1.10;;;36.50;17.00;;;;;;5111560;28;20034;-58
2023/08/13 07:43:40;;;;;;;3.15;1.30;;;37.40;16.80;;;;;;5092285;28;20115;-58
2023/08/13 07:46:05;;;;;;;2.88;1.13;;;38.20;16.00;;;;;;5111523;28;20368;-59
2023/08/13 07:48:31;;;;;;;3.38;1.45;;;38.70;14.70;;;;;;5092311;28;20028;-58
2023/08/13 07:50:56;;;;;;;3.55;1.48;;;38.90;14.50;;;;;;5111477;28;20023;-59
2023/08/13 07:53:22;;;;;;;2.80;1.40;;;39.10;14.20;;;;;;5092161;28;20395;-58
2023/08/13 07:55:49;;;;;;;2.67;1.38;;;39.40;13.60;;;;;;5111121;28;20032;-59
2023/08/13 07:58:15;;;;;;;2.20;1.30;;;39.40;12.60;;;;;;5091901;28;20488;-58
2023/08/13 08:00:41;;;;;;;2.33;1.38;;;39.30;12.10;;;;;;5111170;28;20055;-59
2023/08/13 08:03:06;;;;;;;2.17;1.15;;;39.20;11.90;;;;;;5089999;28;20112;-59
2023/08/13 08:05:32;;;;;;;3.00;1.50;;;39.30;11.90;;;;;;5111195;28;20031;-59
2023/08/13 08:07:57;;;;;;;4.03;1.60;;;39.40;11.80;;;;;;5091885;28;20098;-59
2023/08/13 08:10:24;;;;;;;2.67;1.23;;;39.30;11.80;;;;;;5111029;28;20019;-58
2023/08/13 08:12:49;;;;;;;2.58;1.27;;;39.00;11.30;;;;;;5091761;28;20035;-59
2023/08/13 08:15:15;;;;;;;1.95;1.20;;;38.80;11.20;;;;;;5107000;28;20085;-58
2023/08/13 08:17:40;;;;;;;2.25;1.50;;;38.70;11.30;;;;;;5091712;28;20539;-59
2023/08/13 08:20:07;;;;;;;3.28;1.60;;;38.50;11.30;;;;;;5110868;28;20039;-59
2023/08/13 08:22:32;;;;;;;1.92;1.23;;;38.30;11.50;;;;;;5091444;28;20118;-58
2023/08/13 08:24:58;;;;;;;3.88;1.50;;;38.10;11.50;;;;;;5110610;28;20102;-59
2023/08/13 08:27:23;;;;;;;2.08;1.10;;;38.10;11.70;;;;;;5091660;28;20032;-58
2023/08/13 08:29:49;;;;;;;3.47;1.48;;;37.80;11.80;;;;;;5108939;28;20110;-58
2023/08/13 08:32:14;;;;;;;2.78;1.30;;;37.70;12.30;;;;;;5089026;28;20020;-58
2023/08/13 08:34:40;;;;;;;3.13;1.60;;;37.60;12.20;;;;;;5091025;28;20031;-58
2023/08/13 08:37:05;;;;;;;4.70;1.50;;;37.40;12.30;;;;;;5110279;28;20039;-58
2023/08/13 08:39:31;;;;;;;1.83;1.10;;;37.30;12.20;;;;;;5091247;28;20039;-59
2023/08/13 08:41:57;;;;;;;3.28;1.80;;;37.10;12.00;;;;;;5110461;28;20119;-58
2023/08/13 08:44:23;;;;;;;2.67;1.50;;;37.00;12.00;;;;;;5091083;28;20046;-58
2023/08/13 08:46:50;;;;;;;3.05;1.58;;;36.80;12.00;;;;;;5110387;28;20031;-59
2023/08/13 08:49:23;;;;;;;3.45;1.63;;;36.70;11.90;;;;;;5090787;28;20023;-58
2023/08/13 08:51:49;;;;;;;4.22;1.92;;;36.50;11.50;;;;;;5110674;28;20566;-59
2023/08/13 08:54:15;;;;;;;3.28;1.20;;;36.30;12.10;;;;;;5090246;28;20504;-58
2023/08/13 08:56:41;;;;;;;2.72;1.58;;;36.00;12.20;;;;;;5110064;28;20050;-58
2023/08/13 08:59:07;;;;;;;2.20;1.30;;;35.90;12.00;;;;;;5090892;28;20427;-55
2023/08/13 09:01:33;;;;;;;2.67;1.40;;;35.70;11.60;;;;;;5110034;28;20152;-58
2023/08/13 09:03:59;;;;;;;2.33;1.33;;;35.70;11.70;;;;;;5088998;28;20035;-59
2023/08/13 09:06:52;;;;;;;3.65;1.45;;;35.70;11.80;;;;;;5110112;28;20031;-58
2023/08/13 09:09:17;;;;;;;1.38;0.98;;;35.60;9.30;;;;;;5070104;28;20025;-59
2023/08/13 09:11:43;;;;;;;6.15;1.60;;;35.40;10.90;;;;;;5109329;28;20033;-58
2023/08/13 09:14:09;;;;;;;3.50;1.45;;;35.10;10.90;;;;;;5088014;28;20073;-57
2023/08/13 09:16:36;;;;;;;3.88;1.42;;;35.00;11.10;;;;;;5110553;28;20063;-59
2023/08/13 09:19:02;;;;;;;3.00;1.40;;;35.00;10.80;;;;;;5090547;28;20035;-58
2023/08/13 09:21:29;;;;;;;2.25;1.33;;;35.00;10.80;;;;;;5109797;28;20023;-58
2023/08/13 09:23:58;;;;;;;5.07;1.50;;;34.90;10.30;;;;;;5090380;28;20111;-50
2023/08/13 09:26:27;;;;;;;3.13;1.42;;;34.90;10.20;;;;;;5110142;28;20040;-53
2023/08/13 09:28:52;;;;;;;3.03;1.45;;;34.90;9.80;;;;;;5090506;28;20036;-54
2023/08/13 09:31:18;;;;;;;2.90;1.27;;;34.70;9.10;;;;;;5109428;28;20099;-51
2023/08/13 09:33:45;;;;;;;4.40;1.70;;;34.30;9.60;;;;;;5088706;28;20032;-52
2023/08/13 09:36:11;;;;;;;4.18;1.75;;;34.20;9.80;;;;;;5109775;28;20035;-49
2023/08/13 09:38:37;;;;;;;3.00;1.60;;;34.00;9.70;;;;;;5090449;28;20040;-51
2023/08/13 09:41:04;;;;;;;1.73;1.10;;;34.00;9.70;;;;;;5109688;28;20035;-50
2023/08/13 09:43:31;;;;;;;3.08;1.23;;;34.10;9.80;;;;;;5090193;28;20089;-49
2023/08/13 09:46:00;;;;;;;3.08;1.60;;;34.10;9.90;;;;;;5109905;28;20383;-49
2023/08/13 09:48:27;;;;;;;1.80;1.30;;;34.00;10.10;;;;;;5089884;28;20024;-52
2023/08/13 09:50:55;;;;;;;3.28;1.70;;;34.10;10.10;;;;;;5109532;28;20028;-51
2023/08/13 09:53:23;;;;;;;2.67;1.25;;;34.00;10.30;;;;;;5089758;28;20714;-52
2023/08/13 09:55:54;;;;;;;3.15;1.67;;;34.00;10.00;;;;;;5109662;28;20123;-52
2023/08/13 09:58:20;;;;;;;3.03;1.20;;;33.80;10.00;;;;;;5069789;28;20032;-54
2023/08/13 10:00:47;;;;;;;4.63;1.55;;;33.80;10.30;;;;;;5108966;28;20486;-60
2023/08/13 10:03:14;;;;;;;4.05;1.40;;;33.80;10.40;;;;;;5088146;28;20055;-58
2023/08/13 10:05:42;;;;;;;4.43;1.55;;;33.70;10.50;;;;;;5109478;28;20514;-59
2023/08/13 10:08:08;;;;;;;2.45;1.30;;;33.70;10.50;;;;;;5093274;28;20028;-60
2023/08/13 10:10:35;;;;;;;3.65;1.60;;;33.60;10.40;;;;;;5113283;28;20036;-58
2023/08/13 10:13:01;;;;;;;3.65;1.60;;;33.40;10.30;;;;;;5093926;28;20412;-59
2023/08/13 10:15:27;;;;;;;3.85;1.40;;;33.30;10.40;;;;;;5109800;28;20032;-58
2023/08/13 10:17:53;;;;;;;2.72;1.45;;;32.90;10.50;;;;;;5094040;28;20089;-59
2023/08/13 10:20:19;;;;;;;1.95;1.20;;;32.70;10.60;;;;;;5113053;28;20514;-58
2023/08/13 10:22:46;;;;;;;2.22;1.60;;;32.50;10.50;;;;;;5093937;28;20107;-58
2023/08/13 10:25:29;;;;;;;5.57;1.40;;;32.30;10.80;;;;;;5113339;28;20031;-58
2023/08/13 10:27:56;;;;;;;3.17;1.48;;;31.90;11.80;;;;;;5073230;28;20039;-58
2023/08/13 10:30:21;;;;;;;5.90;1.80;;;31.50;11.40;;;;;;5106266;28;20086;-59
2023/08/13 10:32:50;;;;;;;3.17;1.60;;;31.30;11.50;;;;;;5091499;28;20059;-58
2023/08/13 10:35:34;;;;;;;2.92;1.50;;;31.10;12.40;;;;;;5113276;28;20059;-59
2023/08/13 10:38:01;;;;;;;2.88;1.45;;;30.80;13.30;;;;;;5072913;28;20409;-58
2023/08/13 10:40:27;;;;;;;3.58;1.50;;;30.50;12.90;;;;;;5112610;28;20116;-59
2023/08/13 10:42:55;;;;;;;3.22;1.38;;;30.30;12.80;;;;;;5093520;28;20040;-58
2023/08/13 10:45:25;;;;;;;3.47;1.70;;;30.20;12.90;;;;;;5112901;28;20032;-58
2023/08/13 10:47:53;;;;;;;3.88;1.60;;;29.90;13.30;;;;;;5072800;28;20060;-58
2023/08/13 10:50:19;;;;;;;3.45;1.38;;;29.80;13.70;;;;;;5111816;28;20522;-58
2023/08/13 10:52:51;;;;;;;4.40;1.80;;;29.70;13.60;;;;;;5093444;28;20056;-58
2023/08/13 10:55:21;;;;;;;2.78;1.63;;;29.60;13.90;;;;;;5113080;28;20402;-61
2023/08/13 10:57:51;;;;;;;3.05;1.90;;;29.60;13.60;;;;;;5072702;28;20040;-61
2023/08/13 11:00:18;;;;;;;1.65;1.23;;;29.50;14.10;;;;;;5091475;28;20102;-61
2023/08/13 11:02:44;;;;;;;3.28;1.70;;;29.50;13.90;;;;;;5110633;28;20020;-61
2023/08/13 11:05:10;;;;;;;3.03;1.50;;;29.40;14.60;;;;;;5093134;28;20028;-60
2023/08/13 11:07:36;;;;;;;2.67;1.50;;;29.30;14.20;;;;;;5112368;28;20043;-59
2023/08/13 11:10:03;;;;;;;3.22;1.55;;;29.20;14.10;;;;;;5093104;28;20420;-60
2023/08/13 11:12:30;;;;;;;3.17;1.50;;;29.30;14.40;;;;;;5112515;28;20024;-60
2023/08/13 11:14:59;;;;;;;2.35;1.50;;;29.30;14.70;;;;;;5098072;27;20391;-60
2023/08/13 11:17:25;;;;;;;2.88;1.30;;;29.20;14.20;;;;;;5091922;28;20122;-60
2023/08/13 11:19:55;;;;;;;3.67;1.70;;;29.20;14.00;;;;;;5112164;28;20110;-60
2023/08/13 11:22:23;;;;;;;2.70;1.38;;;29.30;13.90;;;;;;5092190;28;20039;-60
2023/08/13 11:24:48;;;;;;;2.30;1.27;;;29.40;13.90;;;;;;5112402;28;20059;-60
2023/08/13 11:27:14;;;;;;;4.57;1.38;;;29.50;13.90;;;;;;5092780;28;20058;-59
2023/08/13 11:29:39;;;;;;;2.55;1.50;;;29.40;13.80;;;;;;5110604;28;20098;-59
2023/08/13 11:32:05;;;;;;;3.13;1.50;;;29.50;14.00;;;;;;5072713;28;20033;-60
2023/08/13 11:34:31;;;;;;;1.70;1.10;;;29.60;13.90;;;;;;5092191;28;20039;-60
2023/08/13 11:36:56;;;;;;;3.50;1.50;;;29.70;13.80;;;;;;5111760;28;20046;-60
2023/08/13 11:39:23;;;;;;;3.08;1.75;;;29.80;13.20;;;;;;5092565;28;20480;-60
2023/08/13 11:41:51;;;;;;;3.80;1.73;;;29.70;12.60;;;;;;5111854;28;20185;-60
2023/08/13 11:44:17;;;;;;;1.55;1.05;;;29.40;12.90;;;;;;5092123;28;20515;-60
2023/08/13 11:46:56;;;;;;;3.78;1.60;;;29.50;13.50;;;;;;5111701;28;20040;-60
2023/08/13 11:49:23;;;;;;;2.42;1.05;;;29.60;14.40;;;;;;5092150;28;20031;-60
2023/08/13 11:51:49;;;;;;;5.65;2.00;;;29.60;13.60;;;;;;5111523;28;20056;-60
2023/08/13 11:54:18;;;;;;;3.55;1.95;;;29.60;14.60;;;;;;5091993;28;20032;-59
2023/08/13 11:56:43;;;;;;;3.30;1.50;;;29.50;13.80;;;;;;5111761;28;20036;-59
2023/08/13 11:59:09;;;;;;;2.67;1.30;;;29.60;13.60;;;;;;5092022;28;20085;-59
2023/08/13 12:01:34;;;;;;;4.55;1.77;;;29.70;13.60;;;;;;5111253;28;20042;-60
2023/08/13 12:04:04;;;;;;;3.42;1.70;;;29.90;13.70;;;;;;5090329;28;20032;-60
2023/08/13 12:06:29;;;;;;;1.70;1.35;;;29.90;13.60;;;;;;5111487;28;20027;-60
2023/08/13 12:08:56;;;;;;;5.03;1.77;;;29.80;13.60;;;;;;5092192;28;20111;-59
2023/08/13 12:11:21;;;;;;;1.63;1.33;;;29.70;13.90;;;;;;5111163;28;20055;-59
2023/08/13 12:13:47;;;;;;;3.55;1.42;;;29.60;13.90;;;;;;5093516;28;20063;-53
2023/08/13 12:16:13;;;;;;;2.83;1.70;;;29.60;14.10;;;;;;5108272;28;20032;-60
2023/08/13 12:18:39;;;;;;;2.13;1.40;;;29.60;14.10;;;;;;5091748;27;20063;-60
2023/08/13 12:21:04;;;;;;;1.90;1.40;;;29.60;14.20;;;;;;5110980;28;20062;-61
2023/08/13 12:23:30;;;;;;;1.80;1.20;;;29.60;14.20;;;;;;5091508;28;20036;-60
2023/08/13 12:25:56;;;;;;;4.32;1.80;;;29.50;14.30;;;;;;5110765;28;20461;-60
2023/08/13 12:28:22;;;;;;;3.13;1.50;;;29.30;14.90;;;;;;5091534;28;20028;-60
2023/08/13 12:30:47;;;;;;;2.28;1.50;;;29.20;15.30;;;;;;5100035;28;20113;-60
2023/08/13 12:33:13;;;;;;;1.70;1.30;;;29.10;15.40;;;;;;5096764;28;20036;-59
2023/08/13 12:35:38;;;;;;;3.00;1.48;;;29.00;15.50;;;;;;5110686;28;20110;-59
2023/08/13 12:38:04;;;;;;;4.07;1.40;;;28.90;15.00;;;;;;5091257;28;20112;-60
2023/08/13 12:40:29;;;;;;;2.38;1.30;;;28.70;15.20;;;;;;5110504;28;20539;-59
2023/08/13 12:42:55;;;;;;;3.08;1.40;;;28.60;15.20;;;;;;5091456;28;20039;-60
2023/08/13 12:45:21;;;;;;;2.45;1.40;;;28.50;15.40;;;;;;5110365;28;20024;-60